sensor_id;sensor_type;location;lat;lon;timestamp;temperature;humidity
27413;DHT22;14871;52.702;5.230;2022-12-19T00:01:22;2.60;99.90
27413;DHT22;14871;52.702;5.230;2022-12-19T00:03:50;2.60;99.90
27413;DHT22;14871;52.702;5.230;2022-12-19T00:06:17;2.70;99.90
27413;DHT22;14871;52.702;5.230;2022-12-19T00:08:45;2.80;99.90
27413;DHT22;14871;52.702;5.230;2022-12-19T00:11:12;2.90;99.90
27413;DHT22;14871;52.702;5.230;2022-12-19T00:13:38;2.80;99.90
27413;DHT22;14871;52.702;5.230;2022-12-19T00:16:07;3.00;99.90
27413;DHT22;14871;52.702;5.230;2022-12-19T00:18:32;2.90;99.90
27413;DHT22;14871;52.702;5.230;2022-12-19T00:21:00;2.90;99.90
27413;DHT22;14871;52.702;5.230;2022-12-19T00:23:28;2.80;99.90
27413;DHT22;14871;52.702;5.230;2022-12-19T00:25:54;2.80;99.90
27413;DHT22;14871;52.702;5.230;2022-12-19T00:28:20;2.70;99.90
27413;DHT22;14871;52.702;5.230;2022-12-19T00:30:46;2.50;99.90
27413;DHT22;14871;52.702;5.230;2022-12-19T00:33:12;2.50;99.90
27413;DHT22;14871;52.702;5.230;2022-12-19T00:35:37;2.60;99.90
27413;DHT22;14871;52.702;5.230;2022-12-19T00:38:03;2.60;99.90
27413;DHT22;14871;52.702;5.230;2022-12-19T00:40:29;2.60;99.90
27413;DHT22;14871;52.702;5.230;2022-12-19T00:42:54;2.60;99.90
27413;DHT22;14871;52.702;5.230;2022-12-19T00:45:20;2.70;99.90
27413;DHT22;14871;52.702;5.230;2022-12-19T00:47:46;2.70;99.90
27413;DHT22;14871;52.702;5.230;2022-12-19T00:50:11;2.80;99.90
27413;DHT22;14871;52.702;5.230;2022-12-19T00:52:37;2.70;99.90
27413;DHT22;14871;52.702;5.230;2022-12-19T00:55:03;2.70;99.90
27413;DHT22;14871;52.702;5.230;2022-12-19T00:57:28;2.80;99.90
27413;DHT22;14871;52.702;5.230;2022-12-19T00:59:54;2.70;99.90
27413;DHT22;14871;52.702;5.230;2022-12-19T01:02:20;2.70;99.90
27413;DHT22;14871;52.702;5.230;2022-12-19T01:04:45;2.70;99.90
27413;DHT22;14871;52.702;5.230;2022-12-19T01:07:11;2.70;99.90
27413;DHT22;14871;52.702;5.230;2022-12-19T01:09:36;2.70;99.90
27413;DHT22;14871;52.702;5.230;2022-12-19T01:12:04;2.80;99.90
27413;DHT22;14871;52.702;5.230;2022-12-19T01:14:48;2.80;99.90
27413;DHT22;14871;52.702;5.230;2022-12-19T01:17:14;3.00;99.90
27413;DHT22;14871;52.702;5.230;2022-12-19T01:19:39;3.00;99.90
27413;DHT22;14871;52.702;5.230;2022-12-19T01:22:05;2.90;99.90
27413;DHT22;14871;52.702;5.230;2022-12-19T01:24:30;2.90;99.90
27413;DHT22;14871;52.702;5.230;2022-12-19T01:26:56;2.90;99.90
27413;DHT22;14871;52.702;5.230;2022-12-19T01:29:22;2.90;99.90
27413;DHT22;14871;52.702;5.230;2022-12-19T01:31:47;2.70;99.90
27413;DHT22;14871;52.702;5.230;2022-12-19T01:34:13;2.90;99.90
27413;DHT22;14871;52.702;5.230;2022-12-19T01:36:38;3.00;99.90
27413;DHT22;14871;52.702;5.230;2022-12-19T01:39:04;2.80;99.90
27413;DHT22;14871;52.702;5.230;2022-12-19T01:41:30;3.00;99.90
27413;DHT22;14871;52.702;5.230;2022-12-19T01:44:06;2.90;99.90
27413;DHT22;14871;52.702;5.230;2022-12-19T01:46:54;2.90;99.90
27413;DHT22;14871;52.702;5.230;2022-12-19T01:49:33;2.80;99.90
27413;DHT22;14871;52.702;5.230;2022-12-19T01:52:02;3.00;99.90
27413;DHT22;14871;52.702;5.230;2022-12-19T01:54:32;2.90;99.90
27413;DHT22;14871;52.702;5.230;2022-12-19T01:57:00;3.00;99.90
27413;DHT22;14871;52.702;5.230;2022-12-19T01:59:45;3.00;99.90
27413;DHT22;14871;52.702;5.230;2022-12-19T02:02:29;2.90;99.90
27413;DHT22;14871;52.702;5.230;2022-12-19T02:04:55;3.00;99.90
27413;DHT22;14871;52.702;5.230;2022-12-19T02:07:22;3.20;99.90
27413;DHT22;14871;52.702;5.230;2022-12-19T02:09:51;3.10;99.90
27413;DHT22;14871;52.702;5.230;2022-12-19T02:12:18;3.20;99.90
27413;DHT22;14871;52.702;5.230;2022-12-19T02:14:44;3.10;99.90
27413;DHT22;14871;52.702;5.230;2022-12-19T02:31:28;3.20;99.90
27413;DHT22;14871;52.702;5.230;2022-12-19T02:36:51;3.40;99.90
27413;DHT22;14871;52.702;5.230;2022-12-19T02:39:24;3.40;99.90
27413;DHT22;14871;52.702;5.230;2022-12-19T02:41:58;3.40;99.90
27413;DHT22;14871;52.702;5.230;2022-12-19T02:44:32;3.40;99.90
27413;DHT22;14871;52.702;5.230;2022-12-19T02:47:00;3.30;99.90
27413;DHT22;14871;52.702;5.230;2022-12-19T02:49:32;3.40;99.90
27413;DHT22;14871;52.702;5.230;2022-12-19T02:52:08;3.40;99.90
27413;DHT22;14871;52.702;5.230;2022-12-19T02:54:34;3.60;99.90
27413;DHT22;14871;52.702;5.230;2022-12-19T02:57:10;3.60;99.90
27413;DHT22;14871;52.702;5.230;2022-12-19T03:00:01;3.40;99.90
27413;DHT22;14871;52.702;5.230;2022-12-19T03:07:54;3.60;99.90
27413;DHT22;14871;52.702;5.230;2022-12-19T03:10:28;3.60;99.90
27413;DHT22;14871;52.702;5.230;2022-12-19T03:13:00;3.60;99.90
27413;DHT22;14871;52.702;5.230;2022-12-19T03:15:27;3.60;99.90
27413;DHT22;14871;52.702;5.230;2022-12-19T03:18:00;3.60;99.90
27413;DHT22;14871;52.702;5.230;2022-12-19T03:23:14;3.70;99.90
27413;DHT22;14871;52.702;5.230;2022-12-19T03:25:43;3.80;99.90
27413;DHT22;14871;52.702;5.230;2022-12-19T03:28:20;3.90;99.90
27413;DHT22;14871;52.702;5.230;2022-12-19T03:30:48;3.90;99.90
27413;DHT22;14871;52.702;5.230;2022-12-19T03:33:15;4.00;99.90
27413;DHT22;14871;52.702;5.230;2022-12-19T03:35:43;4.00;99.90
27413;DHT22;14871;52.702;5.230;2022-12-19T03:38:11;3.90;99.90
27413;DHT22;14871;52.702;5.230;2022-12-19T03:40:38;3.80;99.90
27413;DHT22;14871;52.702;5.230;2022-12-19T03:43:08;4.00;99.90
27413;DHT22;14871;52.702;5.230;2022-12-19T03:56:31;4.00;99.90
27413;DHT22;14871;52.702;5.230;2022-12-19T03:59:17;4.00;99.90
27413;DHT22;14871;52.702;5.230;2022-12-19T04:01:44;4.20;99.90
27413;DHT22;14871;52.702;5.230;2022-12-19T04:04:11;4.10;99.90
27413;DHT22;14871;52.702;5.230;2022-12-19T04:06:38;4.10;99.90
27413;DHT22;14871;52.702;5.230;2022-12-19T04:09:05;4.20;99.90
27413;DHT22;14871;52.702;5.230;2022-12-19T04:11:39;4.40;99.90
27413;DHT22;14871;52.702;5.230;2022-12-19T04:14:11;4.30;99.90
27413;DHT22;14871;52.702;5.230;2022-12-19T04:20:06;4.20;99.90
27413;DHT22;14871;52.702;5.230;2022-12-19T04:24:59;4.20;99.90
27413;DHT22;14871;52.702;5.230;2022-12-19T04:27:26;4.10;99.90
27413;DHT22;14871;52.702;5.230;2022-12-19T04:29:54;4.40;99.90
27413;DHT22;14871;52.702;5.230;2022-12-19T04:32:23;4.40;99.90
27413;DHT22;14871;52.702;5.230;2022-12-19T04:34:49;4.40;99.90
27413;DHT22;14871;52.702;5.230;2022-12-19T04:37:15;4.40;99.90
27413;DHT22;14871;52.702;5.230;2022-12-19T04:39:41;4.30;99.90
27413;DHT22;14871;52.702;5.230;2022-12-19T04:42:06;4.30;99.90
27413;DHT22;14871;52.702;5.230;2022-12-19T04:44:32;4.40;99.90
27413;DHT22;14871;52.702;5.230;2022-12-19T04:46:57;4.50;99.90
27413;DHT22;14871;52.702;5.230;2022-12-19T04:49:23;4.50;99.90
27413;DHT22;14871;52.702;5.230;2022-12-19T04:51:48;4.60;99.90
27413;DHT22;14871;52.702;5.230;2022-12-19T04:54:14;4.50;99.90
27413;DHT22;14871;52.702;5.230;2022-12-19T04:56:40;4.60;99.90
27413;DHT22;14871;52.702;5.230;2022-12-19T04:59:05;4.70;99.90
27413;DHT22;14871;52.702;5.230;2022-12-19T05:01:31;4.70;99.90
27413;DHT22;14871;52.702;5.230;2022-12-19T05:03:56;4.80;99.90
27413;DHT22;14871;52.702;5.230;2022-12-19T05:06:22;5.00;99.90
27413;DHT22;14871;52.702;5.230;2022-12-19T05:08:48;4.90;99.90
27413;DHT22;14871;52.702;5.230;2022-12-19T05:11:15;4.90;99.90
27413;DHT22;14871;52.702;5.230;2022-12-19T05:13:41;4.90;99.90
27413;DHT22;14871;52.702;5.230;2022-12-19T05:16:08;5.00;99.90
27413;DHT22;14871;52.702;5.230;2022-12-19T05:18:35;5.10;99.90
27413;DHT22;14871;52.702;5.230;2022-12-19T05:21:01;5.00;99.90
27413;DHT22;14871;52.702;5.230;2022-12-19T05:23:27;5.10;99.90
27413;DHT22;14871;52.702;5.230;2022-12-19T05:25:52;5.30;99.90
27413;DHT22;14871;52.702;5.230;2022-12-19T05:28:21;5.20;99.90
27413;DHT22;14871;52.702;5.230;2022-12-19T05:30:47;5.20;99.90
27413;DHT22;14871;52.702;5.230;2022-12-19T05:33:12;5.40;99.90
27413;DHT22;14871;52.702;5.230;2022-12-19T05:35:38;5.50;99.90
27413;DHT22;14871;52.702;5.230;2022-12-19T05:38:04;5.60;99.90
27413;DHT22;14871;52.702;5.230;2022-12-19T05:40:30;5.60;99.90
27413;DHT22;14871;52.702;5.230;2022-12-19T05:42:56;5.90;99.90
27413;DHT22;14871;52.702;5.230;2022-12-19T05:45:22;6.00;99.90
27413;DHT22;14871;52.702;5.230;2022-12-19T05:47:47;5.80;99.90
27413;DHT22;14871;52.702;5.230;2022-12-19T05:50:14;6.00;99.90
27413;DHT22;14871;52.702;5.230;2022-12-19T05:52:40;6.00;99.90
27413;DHT22;14871;52.702;5.230;2022-12-19T05:55:07;6.10;99.90
27413;DHT22;14871;52.702;5.230;2022-12-19T05:57:33;6.30;99.90
27413;DHT22;14871;52.702;5.230;2022-12-19T05:59:59;6.30;99.90
27413;DHT22;14871;52.702;5.230;2022-12-19T06:02:24;6.10;99.90
27413;DHT22;14871;52.702;5.230;2022-12-19T06:04:50;6.20;99.90
27413;DHT22;14871;52.702;5.230;2022-12-19T06:07:16;6.30;99.90
27413;DHT22;14871;52.702;5.230;2022-12-19T06:09:41;6.30;99.90
27413;DHT22;14871;52.702;5.230;2022-12-19T06:12:07;6.30;99.90
27413;DHT22;14871;52.702;5.230;2022-12-19T06:14:33;6.30;99.90
27413;DHT22;14871;52.702;5.230;2022-12-19T06:16:58;6.40;99.90
27413;DHT22;14871;52.702;5.230;2022-12-19T06:19:24;6.50;99.90
27413;DHT22;14871;52.702;5.230;2022-12-19T06:21:50;6.50;99.90
27413;DHT22;14871;52.702;5.230;2022-12-19T06:24:16;6.60;99.90
27413;DHT22;14871;52.702;5.230;2022-12-19T06:26:42;6.50;99.90
27413;DHT22;14871;52.702;5.230;2022-12-19T06:29:08;6.60;99.90
27413;DHT22;14871;52.702;5.230;2022-12-19T06:31:33;6.40;99.90
27413;DHT22;14871;52.702;5.230;2022-12-19T06:33:59;6.70;99.90
27413;DHT22;14871;52.702;5.230;2022-12-19T06:36:26;6.70;99.90
27413;DHT22;14871;52.702;5.230;2022-12-19T06:38:53;6.70;99.90
27413;DHT22;14871;52.702;5.230;2022-12-19T06:41:20;6.50;99.90
27413;DHT22;14871;52.702;5.230;2022-12-19T06:44:06;6.70;99.90
27413;DHT22;14871;52.702;5.230;2022-12-19T06:46:32;6.70;99.90
27413;DHT22;14871;52.702;5.230;2022-12-19T06:48:58;6.70;99.90
27413;DHT22;14871;52.702;5.230;2022-12-19T06:51:24;6.80;99.90
27413;DHT22;14871;52.702;5.230;2022-12-19T06:53:50;6.70;99.90
27413;DHT22;14871;52.702;5.230;2022-12-19T06:56:16;6.70;99.90
27413;DHT22;14871;52.702;5.230;2022-12-19T06:58:42;6.90;99.90
27413;DHT22;14871;52.702;5.230;2022-12-19T07:01:24;6.90;99.90
27413;DHT22;14871;52.702;5.230;2022-12-19T07:03:54;7.00;99.90
27413;DHT22;14871;52.702;5.230;2022-12-19T07:06:20;7.00;99.90
27413;DHT22;14871;52.702;5.230;2022-12-19T07:08:46;7.00;99.90
27413;DHT22;14871;52.702;5.230;2022-12-19T07:11:12;7.20;99.90
27413;DHT22;14871;52.702;5.230;2022-12-19T07:13:37;7.20;99.90
27413;DHT22;14871;52.702;5.230;2022-12-19T07:16:04;6.90;99.90
27413;DHT22;14871;52.702;5.230;2022-12-19T07:18:33;7.10;99.90
27413;DHT22;14871;52.702;5.230;2022-12-19T07:21:00;7.10;99.90
27413;DHT22;14871;52.702;5.230;2022-12-19T07:23:26;7.20;99.90
27413;DHT22;14871;52.702;5.230;2022-12-19T07:25:53;7.20;99.90
27413;DHT22;14871;52.702;5.230;2022-12-19T07:28:18;7.30;99.90
27413;DHT22;14871;52.702;5.230;2022-12-19T07:30:44;7.30;99.90
27413;DHT22;14871;52.702;5.230;2022-12-19T07:33:09;7.30;99.90
27413;DHT22;14871;52.702;5.230;2022-12-19T07:35:35;7.10;99.90
27413;DHT22;14871;52.702;5.230;2022-12-19T07:38:05;7.30;99.90
27413;DHT22;14871;52.702;5.230;2022-12-19T07:40:31;7.30;99.90
27413;DHT22;14871;52.702;5.230;2022-12-19T07:43:01;7.40;99.90
27413;DHT22;14871;52.702;5.230;2022-12-19T07:45:27;7.20;99.90
27413;DHT22;14871;52.702;5.230;2022-12-19T07:47:53;7.30;99.90
27413;DHT22;14871;52.702;5.230;2022-12-19T07:50:19;7.60;99.90
27413;DHT22;14871;52.702;5.230;2022-12-19T07:52:44;7.50;99.90
27413;DHT22;14871;52.702;5.230;2022-12-19T07:55:10;7.40;99.90
27413;DHT22;14871;52.702;5.230;2022-12-19T07:57:36;7.50;99.90
27413;DHT22;14871;52.702;5.230;2022-12-19T08:00:02;7.60;99.90
27413;DHT22;14871;52.702;5.230;2022-12-19T08:02:28;7.50;99.90
27413;DHT22;14871;52.702;5.230;2022-12-19T08:04:53;7.60;99.90
27413;DHT22;14871;52.702;5.230;2022-12-19T08:07:19;7.60;99.90
27413;DHT22;14871;52.702;5.230;2022-12-19T08:09:45;7.60;99.90
27413;DHT22;14871;52.702;5.230;2022-12-19T08:12:10;7.70;99.90
27413;DHT22;14871;52.702;5.230;2022-12-19T08:14:36;7.70;99.90
27413;DHT22;14871;52.702;5.230;2022-12-19T08:17:01;7.80;99.90
27413;DHT22;14871;52.702;5.230;2022-12-19T08:19:27;7.80;99.90
27413;DHT22;14871;52.702;5.230;2022-12-19T08:21:52;8.00;99.90
27413;DHT22;14871;52.702;5.230;2022-12-19T08:24:18;8.00;99.90
27413;DHT22;14871;52.702;5.230;2022-12-19T08:26:44;7.70;99.90
27413;DHT22;14871;52.702;5.230;2022-12-19T08:29:09;7.80;99.90
27413;DHT22;14871;52.702;5.230;2022-12-19T08:31:35;7.90;99.90
27413;DHT22;14871;52.702;5.230;2022-12-19T08:34:00;7.70;99.90
27413;DHT22;14871;52.702;5.230;2022-12-19T08:36:26;7.80;99.90
27413;DHT22;14871;52.702;5.230;2022-12-19T08:38:52;7.70;99.90
27413;DHT22;14871;52.702;5.230;2022-12-19T08:41:18;7.80;99.90
27413;DHT22;14871;52.702;5.230;2022-12-19T08:43:48;8.00;99.90
27413;DHT22;14871;52.702;5.230;2022-12-19T08:46:14;7.70;99.90
27413;DHT22;14871;52.702;5.230;2022-12-19T08:48:42;7.90;99.90
27413;DHT22;14871;52.702;5.230;2022-12-19T08:51:09;8.10;99.90
27413;DHT22;14871;52.702;5.230;2022-12-19T08:53:37;8.00;99.90
27413;DHT22;14871;52.702;5.230;2022-12-19T08:56:06;7.90;99.90
27413;DHT22;14871;52.702;5.230;2022-12-19T08:58:32;7.80;99.90
27413;DHT22;14871;52.702;5.230;2022-12-19T09:01:03;7.80;99.90
27413;DHT22;14871;52.702;5.230;2022-12-19T09:03:30;7.90;99.90
27413;DHT22;14871;52.702;5.230;2022-12-19T09:05:56;7.90;99.90
27413;DHT22;14871;52.702;5.230;2022-12-19T09:08:23;8.00;99.90
27413;DHT22;14871;52.702;5.230;2022-12-19T09:10:49;7.90;99.90
27413;DHT22;14871;52.702;5.230;2022-12-19T09:13:14;8.00;99.90
27413;DHT22;14871;52.702;5.230;2022-12-19T09:15:40;8.00;99.90
27413;DHT22;14871;52.702;5.230;2022-12-19T09:18:06;8.10;99.90
27413;DHT22;14871;52.702;5.230;2022-12-19T09:20:31;8.10;99.90
27413;DHT22;14871;52.702;5.230;2022-12-19T09:22:57;8.20;99.90
27413;DHT22;14871;52.702;5.230;2022-12-19T09:25:22;8.10;99.90
27413;DHT22;14871;52.702;5.230;2022-12-19T09:27:48;8.10;99.90
27413;DHT22;14871;52.702;5.230;2022-12-19T09:30:14;8.10;99.90
27413;DHT22;14871;52.702;5.230;2022-12-19T09:32:40;8.30;99.90
27413;DHT22;14871;52.702;5.230;2022-12-19T09:35:06;8.40;99.90
27413;DHT22;14871;52.702;5.230;2022-12-19T09:37:32;8.10;99.90
27413;DHT22;14871;52.702;5.230;2022-12-19T09:39:57;8.30;99.90
27413;DHT22;14871;52.702;5.230;2022-12-19T09:47:49;7.90;99.90
27413;DHT22;14871;52.702;5.230;2022-12-19T09:52:59;8.40;99.90
27413;DHT22;14871;52.702;5.230;2022-12-19T09:55:35;8.50;99.90
27413;DHT22;14871;52.702;5.230;2022-12-19T09:58:22;8.60;99.90
27413;DHT22;14871;52.702;5.230;2022-12-19T10:00:55;8.50;99.90
27413;DHT22;14871;52.702;5.230;2022-12-19T10:03:59;8.20;99.90
27413;DHT22;14871;52.702;5.230;2022-12-19T10:06:20;8.20;99.90
27413;DHT22;14871;52.702;5.230;2022-12-19T10:08:46;8.50;99.90
27413;DHT22;14871;52.702;5.230;2022-12-19T10:16:35;8.70;99.90
27413;DHT22;14871;52.702;5.230;2022-12-19T10:19:09;8.50;99.90
27413;DHT22;14871;52.702;5.230;2022-12-19T10:21:53;8.70;99.90
27413;DHT22;14871;52.702;5.230;2022-12-19T10:30:19;8.60;99.90
27413;DHT22;14871;52.702;5.230;2022-12-19T10:33:34;8.80;99.90
27413;DHT22;14871;52.702;5.230;2022-12-19T10:36:09;8.80;99.90
27413;DHT22;14871;52.702;5.230;2022-12-19T10:38:46;8.70;99.90
27413;DHT22;14871;52.702;5.230;2022-12-19T10:43:50;8.90;99.90
27413;DHT22;14871;52.702;5.230;2022-12-19T10:49:15;8.60;99.90
27413;DHT22;14871;52.702;5.230;2022-12-19T10:52:04;8.50;99.90
27413;DHT22;14871;52.702;5.230;2022-12-19T10:57:22;8.70;99.90
27413;DHT22;14871;52.702;5.230;2022-12-19T11:02:47;8.90;99.90
27413;DHT22;14871;52.702;5.230;2022-12-19T11:05:23;9.00;99.90
27413;DHT22;14871;52.702;5.230;2022-12-19T11:08:39;9.00;99.90
27413;DHT22;14871;52.702;5.230;2022-12-19T11:15:59;9.10;99.90
27413;DHT22;14871;52.702;5.230;2022-12-19T11:18:46;9.00;99.90
27413;DHT22;14871;52.702;5.230;2022-12-19T11:21:28;8.90;99.90
27413;DHT22;14871;52.702;5.230;2022-12-19T11:24:10;8.70;99.90
27413;DHT22;14871;52.702;5.230;2022-12-19T11:26:46;8.80;99.90
27413;DHT22;14871;52.702;5.230;2022-12-19T11:31:54;8.90;99.90
27413;DHT22;14871;52.702;5.230;2022-12-19T11:34:23;8.90;99.90
27413;DHT22;14871;52.702;5.230;2022-12-19T11:37:14;9.20;99.90
27413;DHT22;14871;52.702;5.230;2022-12-19T11:39:53;9.10;99.90
27413;DHT22;14871;52.702;5.230;2022-12-19T11:42:41;9.10;99.90
27413;DHT22;14871;52.702;5.230;2022-12-19T11:48:12;9.00;99.90
27413;DHT22;14871;52.702;5.230;2022-12-19T11:56:28;9.10;99.90
27413;DHT22;14871;52.702;5.230;2022-12-19T11:58:56;9.10;99.90
27413;DHT22;14871;52.702;5.230;2022-12-19T12:06:59;8.90;99.90
27413;DHT22;14871;52.702;5.230;2022-12-19T12:09:38;9.00;99.90
27413;DHT22;14871;52.702;5.230;2022-12-19T12:15:36;9.20;99.90
27413;DHT22;14871;52.702;5.230;2022-12-19T12:23:38;9.20;99.90
27413;DHT22;14871;52.702;5.230;2022-12-19T12:26:54;9.10;99.90
27413;DHT22;14871;52.702;5.230;2022-12-19T12:29:25;9.20;99.90
27413;DHT22;14871;52.702;5.230;2022-12-19T12:38:00;9.50;99.90
27413;DHT22;14871;52.702;5.230;2022-12-19T12:40:51;9.20;99.90
27413;DHT22;14871;52.702;5.230;2022-12-19T12:46:18;9.20;99.90
27413;DHT22;14871;52.702;5.230;2022-12-19T12:49:01;9.40;99.90
27413;DHT22;14871;52.702;5.230;2022-12-19T12:51:28;9.30;99.90
27413;DHT22;14871;52.702;5.230;2022-12-19T12:54:04;9.30;99.90
27413;DHT22;14871;52.702;5.230;2022-12-19T12:56:32;9.20;99.90
27413;DHT22;14871;52.702;5.230;2022-12-19T13:08:37;9.30;99.90
27413;DHT22;14871;52.702;5.230;2022-12-19T13:11:13;9.30;99.90
27413;DHT22;14871;52.702;5.230;2022-12-19T13:13:59;9.40;99.90
27413;DHT22;14871;52.702;5.230;2022-12-19T13:19:24;9.60;99.90
27413;DHT22;14871;52.702;5.230;2022-12-19T13:24:48;9.40;99.90
27413;DHT22;14871;52.702;5.230;2022-12-19T13:46:17;9.40;99.90
27413;DHT22;14871;52.702;5.230;2022-12-19T13:48:47;9.60;99.90
27413;DHT22;14871;52.702;5.230;2022-12-19T13:51:15;9.50;99.90
27413;DHT22;14871;52.702;5.230;2022-12-19T13:53:42;9.60;99.90
27413;DHT22;14871;52.702;5.230;2022-12-19T14:01:21;9.60;99.90
27413;DHT22;14871;52.702;5.230;2022-12-19T14:03:50;9.50;99.90
27413;DHT22;14871;52.702;5.230;2022-12-19T14:06:30;9.50;99.90
27413;DHT22;14871;52.702;5.230;2022-12-19T14:09:05;9.40;99.90
27413;DHT22;14871;52.702;5.230;2022-12-19T14:11:36;9.50;99.90
27413;DHT22;14871;52.702;5.230;2022-12-19T14:14:04;9.50;99.90
27413;DHT22;14871;52.702;5.230;2022-12-19T14:16:49;9.40;99.90
27413;DHT22;14871;52.702;5.230;2022-12-19T14:19:23;9.70;99.90
27413;DHT22;14871;52.702;5.230;2022-12-19T14:21:50;9.80;99.90
27413;DHT22;14871;52.702;5.230;2022-12-19T14:26:59;10.00;99.90
27413;DHT22;14871;52.702;5.230;2022-12-19T14:29:35;9.80;99.90
27413;DHT22;14871;52.702;5.230;2022-12-19T14:32:01;10.00;99.90
27413;DHT22;14871;52.702;5.230;2022-12-19T14:34:30;9.90;99.90
27413;DHT22;14871;52.702;5.230;2022-12-19T14:36:57;9.80;99.90
27413;DHT22;14871;52.702;5.230;2022-12-19T14:39:29;9.90;99.90
27413;DHT22;14871;52.702;5.230;2022-12-19T14:42:11;9.80;99.90
27413;DHT22;14871;52.702;5.230;2022-12-19T14:44:56;9.80;99.90
27413;DHT22;14871;52.702;5.230;2022-12-19T14:47:24;9.90;99.90
27413;DHT22;14871;52.702;5.230;2022-12-19T14:49:52;10.00;99.90
27413;DHT22;14871;52.702;5.230;2022-12-19T14:52:42;10.00;99.90
27413;DHT22;14871;52.702;5.230;2022-12-19T14:55:31;10.00;99.90
27413;DHT22;14871;52.702;5.230;2022-12-19T14:57:57;9.90;99.90
27413;DHT22;14871;52.702;5.230;2022-12-19T15:00:31;10.00;99.90
27413;DHT22;14871;52.702;5.230;2022-12-19T15:03:00;10.10;99.90
27413;DHT22;14871;52.702;5.230;2022-12-19T15:05:27;10.00;99.90
27413;DHT22;14871;52.702;5.230;2022-12-19T15:07:56;9.90;99.90
27413;DHT22;14871;52.702;5.230;2022-12-19T15:10:32;9.80;99.90
27413;DHT22;14871;52.702;5.230;2022-12-19T15:15:51;9.60;99.90
27413;DHT22;14871;52.702;5.230;2022-12-19T15:21:00;9.80;99.90
27413;DHT22;14871;52.702;5.230;2022-12-19T15:23:27;9.80;99.90
27413;DHT22;14871;52.702;5.230;2022-12-19T15:25:54;9.80;99.90
27413;DHT22;14871;52.702;5.230;2022-12-19T15:28:24;9.90;99.90
27413;DHT22;14871;52.702;5.230;2022-12-19T15:30:55;9.90;99.90
27413;DHT22;14871;52.702;5.230;2022-12-19T15:33:22;10.00;99.90
27413;DHT22;14871;52.702;5.230;2022-12-19T15:35:48;9.80;99.90
27413;DHT22;14871;52.702;5.230;2022-12-19T15:38:13;9.90;99.90
27413;DHT22;14871;52.702;5.230;2022-12-19T15:40:40;9.90;99.90
27413;DHT22;14871;52.702;5.230;2022-12-19T15:43:29;10.00;99.90
27413;DHT22;14871;52.702;5.230;2022-12-19T15:45:57;9.80;99.90
27413;DHT22;14871;52.702;5.230;2022-12-19T15:48:23;9.90;99.90
27413;DHT22;14871;52.702;5.230;2022-12-19T15:50:49;9.90;99.90
27413;DHT22;14871;52.702;5.230;2022-12-19T15:53:21;9.90;99.90
27413;DHT22;14871;52.702;5.230;2022-12-19T15:55:49;9.70;99.90
27413;DHT22;14871;52.702;5.230;2022-12-19T15:58:16;9.60;99.90
27413;DHT22;14871;52.702;5.230;2022-12-19T16:00:54;9.70;99.90
27413;DHT22;14871;52.702;5.230;2022-12-19T16:03:22;9.80;99.90
27413;DHT22;14871;52.702;5.230;2022-12-19T16:05:47;9.70;99.90
27413;DHT22;14871;52.702;5.230;2022-12-19T16:08:20;9.60;99.90
27413;DHT22;14871;52.702;5.230;2022-12-19T16:10:52;10.00;99.90
27413;DHT22;14871;52.702;5.230;2022-12-19T16:13:31;9.90;99.90
27413;DHT22;14871;52.702;5.230;2022-12-19T16:15:58;9.70;99.90
27413;DHT22;14871;52.702;5.230;2022-12-19T16:18:25;9.90;99.90
27413;DHT22;14871;52.702;5.230;2022-12-19T16:20:50;9.70;99.90
27413;DHT22;14871;52.702;5.230;2022-12-19T16:23:16;9.60;99.90
27413;DHT22;14871;52.702;5.230;2022-12-19T16:25:48;9.60;99.90
27413;DHT22;14871;52.702;5.230;2022-12-19T16:28:25;9.50;99.90
27413;DHT22;14871;52.702;5.230;2022-12-19T16:30:55;9.70;99.90
27413;DHT22;14871;52.702;5.230;2022-12-19T16:33:23;9.70;99.90
27413;DHT22;14871;52.702;5.230;2022-12-19T16:35:50;9.70;99.90
27413;DHT22;14871;52.702;5.230;2022-12-19T16:38:17;9.70;99.90
27413;DHT22;14871;52.702;5.230;2022-12-19T16:40:44;9.70;99.90
27413;DHT22;14871;52.702;5.230;2022-12-19T16:45:51;9.70;99.90
27413;DHT22;14871;52.702;5.230;2022-12-19T16:48:19;9.70;99.90
27413;DHT22;14871;52.702;5.230;2022-12-19T16:50:45;9.90;99.90
27413;DHT22;14871;52.702;5.230;2022-12-19T16:53:11;9.80;99.90
27413;DHT22;14871;52.702;5.230;2022-12-19T16:55:37;9.80;99.90
27413;DHT22;14871;52.702;5.230;2022-12-19T16:58:02;9.80;99.90
27413;DHT22;14871;52.702;5.230;2022-12-19T17:00:28;9.80;99.90
27413;DHT22;14871;52.702;5.230;2022-12-19T17:02:57;9.80;99.90
27413;DHT22;14871;52.702;5.230;2022-12-19T17:05:28;9.60;99.90
27413;DHT22;14871;52.702;5.230;2022-12-19T17:07:54;9.80;99.90
27413;DHT22;14871;52.702;5.230;2022-12-19T17:10:27;9.70;99.90
27413;DHT22;14871;52.702;5.230;2022-12-19T17:12:54;9.70;99.90
27413;DHT22;14871;52.702;5.230;2022-12-19T17:15:30;9.60;99.90
27413;DHT22;14871;52.702;5.230;2022-12-19T17:17:59;9.60;99.90
27413;DHT22;14871;52.702;5.230;2022-12-19T17:20:30;9.50;99.90
27413;DHT22;14871;52.702;5.230;2022-12-19T17:22:56;9.40;99.90
27413;DHT22;14871;52.702;5.230;2022-12-19T17:25:26;9.60;99.90
27413;DHT22;14871;52.702;5.230;2022-12-19T17:27:52;9.50;99.90
27413;DHT22;14871;52.702;5.230;2022-12-19T17:30:18;9.70;99.90
27413;DHT22;14871;52.702;5.230;2022-12-19T17:32:47;9.60;99.90
27413;DHT22;14871;52.702;5.230;2022-12-19T17:35:22;9.50;99.90
27413;DHT22;14871;52.702;5.230;2022-12-19T17:37:52;9.30;99.90
27413;DHT22;14871;52.702;5.230;2022-12-19T17:40:30;9.30;99.90
27413;DHT22;14871;52.702;5.230;2022-12-19T17:42:56;9.60;99.90
27413;DHT22;14871;52.702;5.230;2022-12-19T17:45:23;9.50;99.90
27413;DHT22;14871;52.702;5.230;2022-12-19T17:47:51;9.60;99.90
27413;DHT22;14871;52.702;5.230;2022-12-19T17:50:25;9.70;99.90
27413;DHT22;14871;52.702;5.230;2022-12-19T17:52:53;9.70;99.90
27413;DHT22;14871;52.702;5.230;2022-12-19T17:55:22;9.70;99.90
27413;DHT22;14871;52.702;5.230;2022-12-19T17:57:49;9.60;99.90
27413;DHT22;14871;52.702;5.230;2022-12-19T18:00:17;9.70;99.90
27413;DHT22;14871;52.702;5.230;2022-12-19T18:02:44;9.80;99.90
27413;DHT22;14871;52.702;5.230;2022-12-19T18:05:18;9.80;99.90
27413;DHT22;14871;52.702;5.230;2022-12-19T18:07:47;9.70;99.90
27413;DHT22;14871;52.702;5.230;2022-12-19T18:10:21;9.80;99.90
27413;DHT22;14871;52.702;5.230;2022-12-19T18:12:48;9.70;99.90
27413;DHT22;14871;52.702;5.230;2022-12-19T18:15:14;9.60;99.90
27413;DHT22;14871;52.702;5.230;2022-12-19T18:17:41;9.60;99.90
27413;DHT22;14871;52.702;5.230;2022-12-19T18:20:28;9.70;99.90
27413;DHT22;14871;52.702;5.230;2022-12-19T18:22:54;9.70;99.90
27413;DHT22;14871;52.702;5.230;2022-12-19T18:25:23;9.60;99.90
27413;DHT22;14871;52.702;5.230;2022-12-19T18:27:49;9.40;99.90
27413;DHT22;14871;52.702;5.230;2022-12-19T18:30:16;9.60;99.90
27413;DHT22;14871;52.702;5.230;2022-12-19T18:32:47;9.50;99.90
27413;DHT22;14871;52.702;5.230;2022-12-19T18:35:21;9.60;99.90
27413;DHT22;14871;52.702;5.230;2022-12-19T18:37:49;9.50;99.90
27413;DHT22;14871;52.702;5.230;2022-12-19T18:40:20;9.60;99.90
27413;DHT22;14871;52.702;5.230;2022-12-19T18:42:47;9.60;99.90